WetterOnline ( https://www.wetteronline.de )

Wetter aktuell Welschbillig

Aktuelles Wetter: Trier/Petrisberg (273m)

6-stündlich | Neueste Meldungen
Ortszeit Temperatur Wetter
Sa, 20.07. 8:00 17.5° C leicht bewölkt
Sa, 20.07. 2:00 17.1° C wolkig
Fr, 19.07. 20:00 22.4° C wolkig
Fr, 19.07. 14:00 22.9° C wolkig
Fr, 19.07. 8:00 15.9° C bedeckt
Fr, 19.07. 2:00 17.2° C wolkig
Do, 18.07. 20:00 22.1° C bewölkt
Do, 18.07. 14:00 26.5° C wolkig
Ortszeit Temperatur Wetter
Sa, 20.07. 9:00 19.7° C leicht bewölkt
Sa, 20.07. 8:30 18.6° C wolkig
Sa, 20.07. 8:20 18.6° C wolkig
Sa, 20.07. 8:10 18.4° C leicht bewölkt
Sa, 20.07. 8:00 17.5° C leicht bewölkt
Sa, 20.07. 7:50 17.5° C leicht bewölkt
Sa, 20.07. 7:30 15.5° C leicht bewölkt
Sa, 20.07. 7:00 15.1° C leicht bewölkt
Sa, 20.07. 6:30 15.2° C wolkenlos
Sa, 20.07. 6:00 15.4° C wolkenlos
Sa, 20.07. 5:30 16.0° C wolkenlos
Ortszeit Relative Feuchte Sichtweite
Sa, 20.07. 8:00 84% 50 km
Sa, 20.07. 2:00 82% 70 km
Fr, 19.07. 20:00 59% 70 km
Fr, 19.07. 14:00 53% 70 km
Fr, 19.07. 8:00 96% 20 km
Fr, 19.07. 2:00 78% 55 km
Do, 18.07. 20:00 53% 70 km
Do, 18.07. 14:00 37% 70 km
Ortszeit Relative Feuchte Sichtweite
Sa, 20.07. 9:00 69% 70 km
Sa, 20.07. 8:30 79% 55 km
Sa, 20.07. 8:20 79% -
Sa, 20.07. 8:10 80% -
Sa, 20.07. 8:00 84% 50 km
Sa, 20.07. 7:50 84% -
Sa, 20.07. 7:30 91% 45 km
Sa, 20.07. 7:00 92% 45 km
Sa, 20.07. 6:30 90% 60 km
Sa, 20.07. 6:00 88% 60 km
Sa, 20.07. 5:30 86% 70 km
Ortszeit Niederschlagsmenge Niederschlagsart
Sa, 20.07. 8:00 0.0 l/m2 in 12 Std. -
Sa, 20.07. 2:00 0.0 l/m2 in 6 Std. -
Fr, 19.07. 20:00 0.1 l/m2 in 12 Std. -
Fr, 19.07. 14:00 0.1 l/m2 in 6 Std. Regen
Fr, 19.07. 8:00 4 l/m2 in 12 Std. Regen
Fr, 19.07. 2:00 0.1 l/m2 in 6 Std. Regen
Do, 18.07. 20:00 0.1 l/m2 in 12 Std. Regen
Do, 18.07. 14:00 0.0 l/m2 in 6 Std. -
Ortszeit Niederschlagsmenge Niederschlagsart
Sa, 20.07. 9:00 0.0 l/m2 in 1 Std. -
Sa, 20.07. 8:30 0.0 l/m2 in 1 Std. -
Sa, 20.07. 8:20 keine Meldung -
Sa, 20.07. 8:10 keine Meldung -
Sa, 20.07. 8:00 0.0 l/m2 in 1 Std. -
Sa, 20.07. 7:50 keine Meldung -
Sa, 20.07. 7:30 0.0 l/m2 in 1 Std. -
Sa, 20.07. 7:00 0.0 l/m2 in 1 Std. -
Sa, 20.07. 6:30 0.0 l/m2 in 1 Std. -
Sa, 20.07. 6:00 0.0 l/m2 in 1 Std. -
Sa, 20.07. 5:30 0.0 l/m2 in 1 Std. -
Ortszeit Stärke Spitze Richtung
km/h Bft. km/h Grad Sektor
Sa, 20.07. 8:00 2 1 11 360° N
Sa, 20.07. 2:00 4 1 14 30° NO
Fr, 19.07. 20:00 11 2 32 190° S
Fr, 19.07. 14:00 17 3 33 240° SW
Fr, 19.07. 8:00 6 1 13 180° S
Fr, 19.07. 2:00 2 1 20 320° NW
Do, 18.07. 20:00 11 2 32 210° SW
Do, 18.07. 14:00 13 3 28 210° SW
Ortszeit Stärke Spitze Richtung
km/h Bft. km/h Grad Sektor
Sa, 20.07. 9:00 0 0 4 - -
Sa, 20.07. 8:30 2 1 6 260° W
Sa, 20.07. 8:20 2 1 - 260° W
Sa, 20.07. 8:10 4 1 - 20° N
Sa, 20.07. 8:00 2 1 6 360° N
Sa, 20.07. 7:50 2 1 - 360° N
Sa, 20.07. 7:30 4 1 4 30° NO
Sa, 20.07. 7:00 2 1 7 20° N
Sa, 20.07. 6:30 4 1 7 20° N
Sa, 20.07. 6:00 4 1 11 20° N
Sa, 20.07. 5:30 9 2 11 10° N
Ortszeit Untergrenze Bedeckung Gattung
total tief tief mittel hoch
Sa, 20.07. 8:00 10500 m 3/8 0/8 - - -
Sa, 20.07. 2:00 9000 m 8/8 0/8 - - -
Fr, 19.07. 20:00 7200 m 8/8 0/8 - - -
Fr, 19.07. 14:00 1110 m 7/8 1/8 - - -
Fr, 19.07. 8:00 450 m 8/8 8/8 - - -
Fr, 19.07. 2:00 2100 m 8/8 1/8 - - -
Do, 18.07. 20:00 2400 m 7/8 6/8 - - -
Do, 18.07. 14:00 1800 m 7/8 3/8 - - -
Ortszeit Bedeckungsgrad in Achtel und Wolkenuntergrenze
Sa, 20.07. 9:00 7(9000m) 8(10500m) 8(10500m)
Sa, 20.07. 8:30 6(9000m) 7(10500m)
Sa, 20.07. 8:20 6(9000m) 7(10500m)
Sa, 20.07. 8:10 4(9000m) 6(10500m)
Sa, 20.07. 8:00 3(10500m)
Sa, 20.07. 7:50 3(10500m)
Sa, 20.07. 7:30 5(9000m) 6(10500m)
Sa, 20.07. 7:00 5(9000m)
Sa, 20.07. 6:30 keine Wolken
Sa, 20.07. 6:00 keine Wolken
Sa, 20.07. 5:30 keine Wolken
Ortszeit Luftdruck NN (hPa) Tendenz (hPa in 3 Std.)
Sa, 20.07. 8:00 1013 - 0,4
Sa, 20.07. 2:00 1014 - 0,5
Fr, 19.07. 20:00 1014 - 0,5
Fr, 19.07. 14:00 1015 - 0,2
Fr, 19.07. 8:00 1015 + 0,5
Fr, 19.07. 2:00 1014 + 0,2
Do, 18.07. 20:00 1012 + 0,1
Do, 18.07. 14:00 1011 - 0,6
Ortszeit Luftdruck NN (hPa) Tendenz (hPa in 3 Std.)
Sa, 20.07. 9:00 1012 - 0,1
Sa, 20.07. 8:30 1013 - 0,3
Sa, 20.07. 8:20 1013 keine Meldung
Sa, 20.07. 8:10 1012 keine Meldung
Sa, 20.07. 8:00 1013 - 0,4
Sa, 20.07. 7:50 1013 keine Meldung
Sa, 20.07. 7:30 1013 - 0,5
Sa, 20.07. 7:00 1013 - 0,7
Sa, 20.07. 6:30 1013 - 0,7
Sa, 20.07. 6:00 1013 - 1,1
Sa, 20.07. 5:30 1013 - 1,0
Ortszeit Schneehöhe (cm)
Sa, 20.07. 8:00 -
Sa, 20.07. 2:00 -
Fr, 19.07. 20:00 -
Fr, 19.07. 14:00 -
Fr, 19.07. 8:00 -
Fr, 19.07. 2:00 -
Do, 18.07. 20:00 -
Do, 18.07. 14:00 -
Ortszeit Schneehöhe (cm)
Sa, 20.07. 9:00 -
Sa, 20.07. 8:30 -
Sa, 20.07. 8:20 -
Sa, 20.07. 8:10 -
Sa, 20.07. 8:00 -
Sa, 20.07. 7:50 -
Sa, 20.07. 7:30 -
Sa, 20.07. 7:00 -
Sa, 20.07. 6:30 -
Sa, 20.07. 6:00 -
Sa, 20.07. 5:30 -
Link zu dieser Seite / Seite empfehlen

Das Wetter in ...